Time;durP1;ratioP1;P1;durP2;ratioP2;P2;SDS_P1;SDS_P2;PMS_P1;PMS_P2;Temp;Humidity;BMP_temperature;BMP_pressure;BME280_temperature;BME280_humidity;BME280_pressure;Samples;Min_cycle;Max_cycle;Signal;HPM_P1;HPM_P2
2021/08/31 00:00:15;;;;;;;11.07;3.90;;;16.40;99.90;;;;;;4986518;28;20121;-72
2021/08/31 00:02:41;;;;;;;7.30;4.03;;;16.40;99.90;;;;;;4982483;28;20042;-72
2021/08/31 00:05:08;;;;;;;6.60;4.13;;;16.30;99.90;;;;;;4987011;28;20018;-73
2021/08/31 00:07:34;;;;;;;5.15;3.95;;;16.30;99.90;;;;;;4984354;28;20030;-73
2021/08/31 00:09:59;;;;;;;6.57;3.65;;;16.30;99.90;;;;;;4985201;28;20169;-73
2021/08/31 00:12:38;;;;;;;7.22;3.97;;;16.30;99.90;;;;;;4983386;28;20057;-73
2021/08/31 00:15:05;;;;;;;6.70;4.00;;;16.30;99.90;;;;;;4984130;28;20344;-73
2021/08/31 00:17:31;;;;;;;5.35;3.53;;;16.30;99.90;;;;;;4983914;28;20571;-73
2021/08/31 00:19:56;;;;;;;6.68;4.30;;;16.30;99.90;;;;;;4984839;28;20137;-74
2021/08/31 00:22:22;;;;;;;7.55;3.72;;;16.30;99.90;;;;;;4987037;28;20019;-73
2021/08/31 00:24:47;;;;;;;5.90;4.03;;;16.30;99.90;;;;;;4984008;28;20031;-73
2021/08/31 00:27:12;;;;;;;8.73;5.13;;;16.20;99.90;;;;;;4986373;28;20025;-73
2021/08/31 00:29:38;;;;;;;7.28;3.70;;;16.20;99.90;;;;;;4987923;28;20034;-73
2021/08/31 00:32:04;;;;;;;10.73;4.13;;;16.30;99.90;;;;;;4984225;28;20583;-73
2021/08/31 00:34:30;;;;;;;12.57;4.28;;;16.20;99.90;;;;;;4986680;28;20035;-74
2021/08/31 00:36:55;;;;;;;7.22;4.30;;;16.20;99.90;;;;;;4986601;28;20033;-73
2021/08/31 00:39:21;;;;;;;8.77;4.25;;;16.20;99.90;;;;;;4982195;28;20076;-73
2021/08/31 00:41:47;;;;;;;6.35;3.63;;;16.20;99.90;;;;;;4986933;28;20390;-73
2021/08/31 00:44:23;;;;;;;9.75;3.85;;;16.20;99.90;;;;;;4983010;28;21640;-73
2021/08/31 00:46:50;;;;;;;7.97;4.10;;;16.20;99.90;;;;;;4990241;28;20385;-73
2021/08/31 00:49:16;;;;;;;7.75;4.38;;;16.20;99.90;;;;;;4990203;28;20109;-73
2021/08/31 00:51:41;;;;;;;7.00;4.20;;;16.20;99.90;;;;;;4991648;28;20146;-73
2021/08/31 00:54:07;;;;;;;10.32;4.22;;;16.20;99.90;;;;;;4988993;28;20560;-73
2021/08/31 00:56:36;;;;;;;9.00;4.57;;;16.20;99.90;;;;;;4991675;28;20034;-73
2021/08/31 00:59:01;;;;;;;7.82;3.97;;;16.20;99.90;;;;;;4989386;28;20050;-73
2021/08/31 01:01:28;;;;;;;7.72;4.38;;;16.20;99.90;;;;;;4990325;28;20030;-73
2021/08/31 01:03:53;;;;;;;6.78;4.40;;;16.10;99.90;;;;;;4990084;28;20469;-73
2021/08/31 01:06:19;;;;;;;7.88;4.40;;;16.10;99.90;;;;;;4988860;28;20125;-72
2021/08/31 01:08:44;;;;;;;6.25;4.00;;;16.10;99.90;;;;;;4990847;28;20428;-73
2021/08/31 01:11:10;;;;;;;7.22;4.38;;;16.10;99.90;;;;;;4990443;28;20485;-74
2021/08/31 01:13:38;;;;;;;8.52;4.03;;;16.10;99.90;;;;;;4985010;28;20054;-73
2021/08/31 01:16:04;;;;;;;7.75;4.35;;;16.10;99.90;;;;;;4988502;28;20038;-73
2021/08/31 01:18:29;;;;;;;7.35;4.22;;;16.10;99.90;;;;;;4986389;28;20029;-73
2021/08/31 01:20:58;;;;;;;8.88;4.47;;;16.10;99.90;;;;;;4990726;28;20049;-73
2021/08/31 01:23:28;;;;;;;8.30;4.55;;;16.10;99.90;;;;;;4989379;28;20058;-73
2021/08/31 01:25:54;;;;;;;6.60;4.25;;;16.20;99.90;;;;;;4988926;28;20061;-73
2021/08/31 01:28:23;;;;;;;5.85;4.07;;;16.10;99.90;;;;;;4989077;28;20030;-73
2021/08/31 01:30:49;;;;;;;6.55;4.00;;;16.10;99.90;;;;;;4988303;28;20061;-73
2021/08/31 01:33:15;;;;;;;11.23;3.65;;;16.10;99.90;;;;;;4990335;28;20037;-73
2021/08/31 01:35:41;;;;;;;6.25;3.80;;;16.10;99.90;;;;;;4986682;28;20037;-73
2021/08/31 01:38:06;;;;;;;7.75;4.25;;;16.10;99.90;;;;;;4987522;28;20023;-73
2021/08/31 01:40:32;;;;;;;7.28;4.18;;;16.10;99.90;;;;;;4989137;28;20034;-73
2021/08/31 01:42:58;;;;;;;10.05;3.92;;;16.00;99.90;;;;;;4989148;28;20369;-73
2021/08/31 01:45:24;;;;;;;8.60;4.57;;;16.10;99.90;;;;;;4986334;28;20030;-73
2021/08/31 01:47:49;;;;;;;9.70;5.05;;;16.10;99.90;;;;;;4989474;28;20084;-73
2021/08/31 01:50:14;;;;;;;10.68;5.30;;;16.00;99.90;;;;;;4986785;28;20034;-72
2021/08/31 01:52:40;;;;;;;8.18;4.50;;;16.10;99.90;;;;;;4983304;28;20457;-73
2021/08/31 01:55:06;;;;;;;10.30;4.45;;;16.10;99.90;;;;;;4984713;28;20069;-73
2021/08/31 01:57:32;;;;;;;9.90;4.68;;;16.00;99.90;;;;;;4986020;28;20505;-73
2021/08/31 01:59:58;;;;;;;8.43;4.65;;;16.00;99.90;;;;;;4991133;28;20046;-73
2021/08/31 02:02:23;;;;;;;7.97;4.57;;;16.10;99.90;;;;;;4990589;28;20503;-73
2021/08/31 02:04:49;;;;;;;8.95;4.53;;;16.00;99.90;;;;;;4989104;28;20099;-74
2021/08/31 02:07:17;;;;;;;7.13;4.07;;;16.10;99.90;;;;;;4989824;28;20029;-74
2021/08/31 02:09:42;;;;;;;5.90;3.83;;;16.00;99.90;;;;;;4985420;28;20489;-74
2021/08/31 02:12:09;;;;;;;7.35;4.40;;;16.00;99.90;;;;;;4985645;28;20114;-73
2021/08/31 02:14:34;;;;;;;8.27;4.63;;;16.00;99.90;;;;;;4979121;28;20654;-73
2021/08/31 02:17:00;;;;;;;11.15;4.82;;;16.00;99.90;;;;;;4988644;28;20088;-73
2021/08/31 02:19:26;;;;;;;7.38;4.47;;;15.90;99.90;;;;;;4989707;28;20030;-73
2021/08/31 02:21:52;;;;;;;7.18;4.45;;;16.00;99.90;;;;;;4990384;28;20021;-73
2021/08/31 02:24:18;;;;;;;10.75;4.45;;;16.00;99.90;;;;;;4989351;28;20393;-73
2021/08/31 02:26:43;;;;;;;9.93;4.28;;;16.00;99.90;;;;;;4979145;28;20026;-73
2021/08/31 02:29:09;;;;;;;6.57;4.35;;;16.00;99.90;;;;;;4987382;28;20428;-73
2021/08/31 02:31:35;;;;;;;12.75;5.25;;;16.00;99.90;;;;;;4987198;28;20117;-73
2021/08/31 02:34:00;;;;;;;9.77;4.30;;;16.00;99.90;;;;;;4987541;28;20041;-73
2021/08/31 02:36:26;;;;;;;11.73;4.88;;;16.00;99.90;;;;;;4988162;28;20404;-73
2021/08/31 02:38:51;;;;;;;8.35;4.65;;;16.00;99.90;;;;;;4989132;28;20030;-73
2021/08/31 02:41:17;;;;;;;8.48;4.38;;;16.00;99.90;;;;;;4987273;28;20547;-73
2021/08/31 02:43:43;;;;;;;5.93;4.10;;;15.90;99.90;;;;;;4989280;28;20477;-73
2021/08/31 02:46:08;;;;;;;7.55;4.40;;;15.90;99.90;;;;;;4989553;28;20104;-73
2021/08/31 02:48:34;;;;;;;7.18;4.32;;;15.90;99.90;;;;;;4986995;28;20018;-74
2021/08/31 02:50:59;;;;;;;7.32;4.65;;;15.90;99.90;;;;;;4989124;28;20022;-74
2021/08/31 02:53:25;;;;;;;7.53;4.50;;;15.90;99.90;;;;;;4985196;28;20064;-73
2021/08/31 02:55:50;;;;;;;6.97;4.47;;;15.90;99.90;;;;;;4987201;28;20389;-73
2021/08/31 02:58:16;;;;;;;8.75;4.40;;;15.90;99.90;;;;;;4985387;28;20030;-74
2021/08/31 03:00:43;;;;;;;7.28;4.32;;;15.90;99.90;;;;;;4983117;28;20045;-73
2021/08/31 03:03:09;;;;;;;8.27;4.80;;;15.90;99.90;;;;;;4989364;28;20050;-73
2021/08/31 03:05:35;;;;;;;11.35;5.07;;;15.80;99.90;;;;;;4986705;28;20102;-73
2021/08/31 03:08:01;;;;;;;8.05;4.63;;;15.80;99.90;;;;;;4987590;28;20069;-73
2021/08/31 03:10:26;;;;;;;7.43;4.45;;;15.80;99.90;;;;;;4989406;28;20078;-73
2021/08/31 03:12:52;;;;;;;8.63;4.25;;;15.90;99.90;;;;;;4987001;28;20394;-73
2021/08/31 03:15:17;;;;;;;8.38;4.72;;;15.90;99.90;;;;;;4990014;28;20050;-73
2021/08/31 03:17:43;;;;;;;6.20;4.38;;;15.80;99.90;;;;;;4983726;28;20049;-73
2021/08/31 03:20:09;;;;;;;9.20;5.43;;;15.90;99.90;;;;;;4987341;28;20041;-73
2021/08/31 03:22:34;;;;;;;9.60;4.72;;;15.90;99.90;;;;;;4985466;28;20536;-73
2021/08/31 03:25:00;;;;;;;11.82;4.80;;;15.90;99.90;;;;;;4983930;28;20026;-73
2021/08/31 03:27:32;;;;;;;8.60;4.63;;;15.90;99.90;;;;;;4985528;28;20474;-73
2021/08/31 03:29:57;;;;;;;8.30;4.57;;;15.90;99.90;;;;;;4987500;28;20065;-74
2021/08/31 03:32:22;;;;;;;10.27;4.88;;;15.90;99.90;;;;;;4988282;28;20481;-73
2021/08/31 03:34:48;;;;;;;9.38;4.53;;;15.90;99.90;;;;;;4987204;28;20056;-73
2021/08/31 03:37:13;;;;;;;7.75;4.95;;;15.80;99.90;;;;;;4986857;28;20023;-73
2021/08/31 03:39:39;;;;;;;9.88;4.38;;;15.80;99.90;;;;;;4986705;28;20066;-73
2021/08/31 03:42:04;;;;;;;7.20;4.55;;;15.90;99.90;;;;;;4987282;28;20031;-73
2021/08/31 03:44:30;;;;;;;6.72;4.45;;;15.80;99.90;;;;;;4988596;28;20543;-73
2021/08/31 03:46:55;;;;;;;6.57;4.47;;;15.80;99.90;;;;;;4988868;28;20029;-73
2021/08/31 03:49:21;;;;;;;12.20;4.90;;;15.80;99.90;;;;;;4983091;28;20037;-73
2021/08/31 03:51:46;;;;;;;6.65;4.53;;;15.80;99.90;;;;;;4979834;28;20085;-73
2021/08/31 03:54:12;;;;;;;6.97;4.35;;;15.80;99.90;;;;;;4980540;28;20022;-73
2021/08/31 03:56:37;;;;;;;6.30;4.28;;;15.80;99.90;;;;;;4984846;28;20499;-73
2021/08/31 03:59:03;;;;;;;7.45;4.43;;;15.80;99.90;;;;;;4977547;28;20073;-73
2021/08/31 04:01:28;;;;;;;17.73;4.70;;;15.80;99.90;;;;;;4985501;28;20018;-74
2021/08/31 04:03:54;;;;;;;7.30;4.38;;;15.80;99.90;;;;;;4981496;28;20035;-73
2021/08/31 04:06:19;;;;;;;12.85;5.05;;;15.80;99.90;;;;;;4987731;28;20022;-73
2021/08/31 04:08:45;;;;;;;8.00;4.68;;;15.80;99.90;;;;;;4980093;28;20018;-73
2021/08/31 04:11:10;;;;;;;9.60;4.20;;;15.80;99.90;;;;;;4983482;28;20031;-72
2021/08/31 04:13:36;;;;;;;9.35;4.35;;;15.80;99.90;;;;;;4988840;28;20033;-73
2021/08/31 04:16:01;;;;;;;12.77;4.25;;;15.80;99.90;;;;;;4985978;28;20026;-73
2021/08/31 04:18:27;;;;;;;7.93;4.90;;;15.80;99.90;;;;;;4986172;28;20030;-73
2021/08/31 04:20:52;;;;;;;13.20;5.03;;;15.80;99.90;;;;;;4982584;28;20038;-73
2021/08/31 04:23:18;;;;;;;6.45;4.40;;;15.80;99.90;;;;;;4986721;28;20164;-73
2021/08/31 04:25:44;;;;;;;9.70;4.70;;;15.80;99.90;;;;;;4984322;28;20038;-73
2021/08/31 04:28:09;;;;;;;7.32;4.53;;;15.80;99.90;;;;;;4985905;28;20026;-73
2021/08/31 04:30:35;;;;;;;9.93;4.85;;;15.80;99.90;;;;;;4985901;28;20034;-73
2021/08/31 04:33:00;;;;;;;8.10;4.05;;;15.80;99.90;;;;;;4983301;28;20038;-74
2021/08/31 04:35:26;;;;;;;8.45;4.50;;;15.80;99.90;;;;;;4987105;28;20118;-72
2021/08/31 04:37:52;;;;;;;8.20;4.70;;;15.80;99.90;;;;;;4980053;28;20114;-71
2021/08/31 04:40:17;;;;;;;8.98;4.30;;;15.80;99.90;;;;;;4985595;28;20026;-71
2021/08/31 04:42:43;;;;;;;7.47;4.50;;;15.70;99.90;;;;;;4982847;28;20668;-71
2021/08/31 04:45:09;;;;;;;8.60;4.50;;;15.80;99.90;;;;;;4985342;28;20022;-71
2021/08/31 04:47:34;;;;;;;6.90;4.13;;;15.70;99.90;;;;;;4986692;28;20109;-71
2021/08/31 04:50:00;;;;;;;7.75;4.15;;;15.80;99.90;;;;;;4986475;28;20034;-71
2021/08/31 04:52:25;;;;;;;8.95;4.75;;;15.80;99.90;;;;;;4984494;28;20053;-72
2021/08/31 04:54:51;;;;;;;6.68;4.13;;;15.80;99.90;;;;;;4984461;28;20508;-73
2021/08/31 04:57:28;;;;;;;6.75;4.05;;;15.80;99.90;;;;;;4985755;28;20027;-72
2021/08/31 04:59:54;;;;;;;6.20;3.75;;;15.70;99.90;;;;;;4985332;28;20504;-72
2021/08/31 05:02:19;;;;;;;10.98;4.05;;;15.80;99.90;;;;;;4987498;28;20037;-72
2021/08/31 05:04:45;;;;;;;8.35;4.28;;;15.80;99.90;;;;;;4982821;28;20035;-72
2021/08/31 05:07:11;;;;;;;10.27;4.35;;;15.80;99.90;;;;;;4985066;28;20045;-72
2021/08/31 05:09:46;;;;;;;11.10;4.13;;;15.70;99.90;;;;;;4983636;28;20026;-72
2021/08/31 05:12:11;;;;;;;11.70;4.60;;;15.70;99.90;;;;;;4982386;28;20172;-73
2021/08/31 05:14:37;;;;;;;11.00;4.65;;;15.80;99.90;;;;;;4980761;28;20084;-71
2021/08/31 05:17:03;;;;;;;6.57;4.07;;;15.80;99.90;;;;;;4989192;28;20129;-72
2021/08/31 05:19:30;;;;;;;7.80;4.57;;;15.80;99.90;;;;;;4985080;28;20027;-72
2021/08/31 05:21:57;;;;;;;9.90;4.43;;;15.80;99.90;;;;;;4980441;28;20027;-71
2021/08/31 05:24:23;;;;;;;6.55;4.13;;;15.80;99.90;;;;;;4981741;28;20097;-71
2021/08/31 05:27:24;;;;;;;7.93;4.43;;;15.80;99.90;;;;;;4979503;28;20544;-72
2021/08/31 05:29:50;;;;;;;;;;;15.80;99.90;;;;;;4972814;28;20089;-71
2021/08/31 05:32:16;;;;;;;8.02;4.20;;;15.80;99.90;;;;;;4987495;28;19909;-71
2021/08/31 05:34:42;;;;;;;12.05;4.55;;;15.70;99.90;;;;;;4984643;28;20030;-71
2021/08/31 05:37:07;;;;;;;5.70;3.85;;;15.80;99.90;;;;;;4976249;28;20556;-71
2021/08/31 05:39:33;;;;;;;7.97;4.15;;;15.80;99.90;;;;;;4991713;28;20038;-72
2021/08/31 05:42:04;;;;;;;10.45;4.88;;;15.80;99.90;;;;;;4988956;28;20038;-72
2021/08/31 05:44:31;;;;;;;11.40;3.97;;;15.80;99.90;;;;;;4991142;28;20026;-72
2021/08/31 05:46:56;;;;;;;6.57;3.80;;;15.80;99.90;;;;;;4979208;28;20528;-71
2021/08/31 05:49:22;;;;;;;6.47;3.95;;;15.90;99.90;;;;;;4985700;28;20162;-72
2021/08/31 05:51:47;;;;;;;10.10;4.75;;;15.90;99.90;;;;;;4983675;28;20417;-72
2021/08/31 05:54:13;;;;;;;9.32;4.32;;;15.90;99.90;;;;;;4991500;28;20030;-72
2021/08/31 05:56:58;;;;;;;6.35;3.72;;;15.90;99.90;;;;;;4990810;28;20026;-72
2021/08/31 05:59:24;;;;;;;6.00;3.90;;;15.90;99.90;;;;;;4990341;28;20058;-72
2021/08/31 06:01:49;;;;;;;6.80;4.03;;;15.90;99.90;;;;;;4989668;28;20026;-72
2021/08/31 06:04:15;;;;;;;7.85;4.53;;;15.90;99.90;;;;;;4982375;28;20106;-72
2021/08/31 06:06:41;;;;;;;8.75;4.25;;;15.90;99.90;;;;;;4984857;28;20031;-72
2021/08/31 06:09:07;;;;;;;6.70;4.22;;;15.90;99.90;;;;;;4987080;28;20034;-72
2021/08/31 06:11:38;;;;;;;13.82;4.70;;;15.90;99.90;;;;;;4988153;28;20026;-72
2021/08/31 06:14:04;;;;;;;8.60;4.05;;;15.90;99.90;;;;;;4985697;28;20034;-72
2021/08/31 06:16:30;;;;;;;11.82;4.25;;;15.90;99.90;;;;;;4989141;28;20112;-72
2021/08/31 06:18:55;;;;;;;8.48;4.50;;;15.90;99.90;;;;;;4990183;28;20046;-72
2021/08/31 06:21:21;;;;;;;10.38;4.57;;;15.90;99.90;;;;;;4990593;28;20026;-72
2021/08/31 06:23:46;;;;;;;7.30;4.18;;;15.90;99.90;;;;;;4983019;28;20031;-73
2021/08/31 06:26:12;;;;;;;8.27;4.80;;;15.90;99.90;;;;;;4971843;28;20517;-72
2021/08/31 06:28:38;;;;;;;6.55;4.20;;;15.90;99.90;;;;;;4980878;28;20026;-72
2021/08/31 06:31:03;;;;;;;7.63;4.53;;;15.90;99.90;;;;;;4974788;28;20035;-72
2021/08/31 06:33:29;;;;;;;6.35;4.28;;;15.90;99.90;;;;;;4989372;28;20034;-72
2021/08/31 06:35:54;;;;;;;7.43;4.40;;;15.90;99.90;;;;;;4991446;28;20057;-73
2021/08/31 06:38:20;;;;;;;10.60;4.75;;;15.90;99.90;;;;;;4990101;28;20030;-72
2021/08/31 06:40:45;;;;;;;6.65;4.05;;;15.90;99.90;;;;;;4984843;28;20425;-71
2021/08/31 06:43:11;;;;;;;7.85;4.35;;;16.00;99.90;;;;;;4980324;28;20027;-72
2021/08/31 06:45:36;;;;;;;6.70;4.18;;;16.00;99.90;;;;;;4985766;28;20492;-72
2021/08/31 06:48:02;;;;;;;7.15;4.18;;;16.00;99.90;;;;;;4990048;28;20117;-71
2021/08/31 06:50:29;;;;;;;4.80;3.60;;;16.00;99.90;;;;;;4986030;28;20042;-71
2021/08/31 06:52:55;;;;;;;8.25;4.13;;;16.00;99.90;;;;;;4989850;28;20057;-72
2021/08/31 06:55:22;;;;;;;7.15;4.00;;;16.00;99.90;;;;;;4974742;28;20034;-72
2021/08/31 06:57:48;;;;;;;8.65;4.30;;;16.10;99.90;;;;;;4989365;28;20501;-72
2021/08/31 07:00:14;;;;;;;6.78;4.13;;;16.10;99.90;;;;;;4987551;28;20069;-72
2021/08/31 07:02:42;;;;;;;7.43;4.18;;;16.20;99.90;;;;;;4986467;28;20117;-72
2021/08/31 07:05:08;;;;;;;10.75;4.07;;;16.20;99.90;;;;;;4990319;28;20536;-73
2021/08/31 07:07:34;;;;;;;10.00;4.05;;;16.30;99.90;;;;;;4989504;28;20073;-72
2021/08/31 07:09:59;;;;;;;5.30;3.80;;;16.40;99.90;;;;;;4989634;28;20030;-72
2021/08/31 07:12:25;;;;;;;6.45;4.13;;;16.50;99.90;;;;;;4982026;28;20401;-72
2021/08/31 07:14:52;;;;;;;8.38;3.80;;;16.50;99.90;;;;;;4986659;28;20034;-71
2021/08/31 07:17:18;;;;;;;7.85;3.85;;;16.60;99.90;;;;;;4988856;28;20070;-72
2021/08/31 07:19:44;;;;;;;10.00;4.18;;;16.60;99.90;;;;;;4986862;28;20033;-72
2021/08/31 07:22:09;;;;;;;9.52;4.20;;;16.70;99.90;;;;;;4993463;28;20069;-72
2021/08/31 07:24:35;;;;;;;7.55;3.80;;;16.70;99.90;;;;;;4991783;28;20103;-72
2021/08/31 07:27:01;;;;;;;6.22;3.83;;;16.70;99.90;;;;;;4985078;28;20084;-72
2021/08/31 07:29:26;;;;;;;7.15;3.78;;;16.80;99.90;;;;;;4989210;28;20578;-72
2021/08/31 07:31:52;;;;;;;6.05;3.58;;;16.90;99.90;;;;;;4984748;28;20034;-72
2021/08/31 07:34:19;;;;;;;5.85;3.95;;;16.90;99.90;;;;;;4988321;28;20042;-72
2021/08/31 07:36:45;;;;;;;6.70;4.05;;;16.90;99.90;;;;;;4982207;28;20038;-72
2021/08/31 07:39:11;;;;;;;11.30;3.90;;;17.00;99.90;;;;;;4988708;28;20031;-72
2021/08/31 07:41:37;;;;;;;5.88;3.42;;;17.10;99.90;;;;;;4988675;28;20031;-71
2021/08/31 07:44:03;;;;;;;8.50;3.70;;;17.20;99.90;;;;;;4989341;28;20022;-72
2021/08/31 07:46:28;;;;;;;4.97;3.15;;;17.30;99.90;;;;;;4988929;28;20069;-71
2021/08/31 07:48:54;;;;;;;5.97;3.50;;;17.30;99.90;;;;;;4976091;28;20026;-72
2021/08/31 07:51:22;;;;;;;6.32;3.95;;;17.40;99.90;;;;;;4986325;28;20532;-72
2021/08/31 07:53:48;;;;;;;7.40;3.80;;;17.50;99.90;;;;;;4988115;28;20030;-73
2021/08/31 07:56:14;;;;;;;7.60;3.92;;;17.70;99.90;;;;;;4988645;28;20023;-72
2021/08/31 07:58:40;;;;;;;10.35;4.35;;;17.70;99.90;;;;;;4988426;28;20049;-72
2021/08/31 08:01:05;;;;;;;8.30;3.67;;;17.70;99.90;;;;;;4988523;28;20072;-72
2021/08/31 08:03:32;;;;;;;5.55;3.80;;;17.80;99.90;;;;;;4971602;28;20035;-72
2021/08/31 08:05:58;;;;;;;9.05;3.70;;;17.80;99.90;;;;;;4982787;28;20035;-72
2021/08/31 08:08:26;;;;;;;6.75;3.67;;;17.90;99.90;;;;;;4976574;28;20161;-71
2021/08/31 08:10:52;;;;;;;6.65;3.67;;;17.80;99.90;;;;;;4987312;28;20129;-71
2021/08/31 08:13:18;;;;;;;11.88;3.85;;;17.90;99.90;;;;;;4987120;28;20173;-71
2021/08/31 08:15:43;;;;;;;5.97;4.30;;;17.90;99.90;;;;;;4988271;28;20510;-72
2021/08/31 08:18:09;;;;;;;5.40;3.55;;;17.90;99.90;;;;;;4982167;28;20077;-72
2021/08/31 08:20:35;;;;;;;9.13;4.13;;;18.00;99.90;;;;;;4987079;28;20030;-73
2021/08/31 08:23:00;;;;;;;5.95;3.70;;;18.00;99.90;;;;;;4983280;28;20047;-72
2021/08/31 08:25:26;;;;;;;8.55;3.80;;;18.00;99.90;;;;;;4979416;28;20391;-72
2021/08/31 08:27:52;;;;;;;4.95;3.72;;;18.00;99.90;;;;;;4979099;28;20453;-72
2021/08/31 08:30:17;;;;;;;6.13;3.80;;;18.00;99.90;;;;;;4988578;28;20038;-72
2021/08/31 08:32:43;;;;;;;5.97;3.58;;;18.00;99.90;;;;;;4988787;28;20544;-72
2021/08/31 08:35:11;;;;;;;6.70;4.13;;;18.00;99.90;;;;;;4984727;28;20030;-72
2021/08/31 08:37:37;;;;;;;6.95;3.90;;;17.90;99.90;;;;;;4984583;28;20085;-72
2021/08/31 08:40:04;;;;;;;10.32;4.32;;;17.90;99.90;;;;;;4978824;28;20375;-72
2021/08/31 08:42:30;;;;;;;4.82;3.33;;;17.80;99.90;;;;;;4973825;28;20035;-72
2021/08/31 08:44:56;;;;;;;6.93;4.25;;;17.80;99.90;;;;;;4988107;28;20027;-72
2021/08/31 08:47:21;;;;;;;6.22;4.03;;;17.90;99.90;;;;;;4988031;28;20027;-72
2021/08/31 08:49:49;;;;;;;9.05;3.97;;;18.00;99.90;;;;;;4988618;28;20026;-72
2021/08/31 08:52:14;;;;;;;5.85;3.60;;;18.10;99.90;;;;;;4988947;28;20026;-72
2021/08/31 08:54:41;;;;;;;6.00;3.80;;;18.10;99.90;;;;;;4980777;28;20113;-72
2021/08/31 08:57:07;;;;;;;6.40;4.00;;;18.20;99.90;;;;;;4986111;28;20023;-72
2021/08/31 08:59:32;;;;;;;7.20;3.72;;;18.20;99.90;;;;;;4988623;28;20050;-71
2021/08/31 09:01:58;;;;;;;6.63;4.07;;;18.30;99.90;;;;;;4984331;28;20694;-72
2021/08/31 09:04:46;;;;;;;10.40;4.50;;;18.40;99.90;;;;;;4969392;28;20481;-72
2021/08/31 09:07:23;;;;;;;8.52;3.90;;;18.60;99.90;;;;;;4991659;28;20018;-72
2021/08/31 09:10:10;;;;;;;6.47;4.03;;;18.80;99.90;;;;;;4992290;28;20041;-71
2021/08/31 09:12:36;;;;;;;7.47;3.90;;;18.90;99.90;;;;;;4989829;28;20045;-72
2021/08/31 09:15:18;;;;;;;5.60;4.03;;;19.00;99.90;;;;;;4990342;28;20034;-72
2021/08/31 09:18:06;;;;;;;;;;;19.10;99.90;;;;;;4993054;28;20042;-72
2021/08/31 09:20:51;;;;;;;5.55;4.10;;;19.10;99.90;;;;;;4986629;28;19914;-73
2021/08/31 09:23:23;;;;;;;5.72;3.53;;;19.10;99.90;;;;;;4992442;28;20080;-72
2021/08/31 09:25:52;;;;;;;6.10;4.20;;;19.10;99.90;;;;;;4979883;28;20117;-72
2021/08/31 09:28:33;;;;;;;7.68;4.53;;;19.10;99.90;;;;;;4992270;28;20475;-72
2021/08/31 09:31:02;;;;;;;6.00;3.92;;;19.00;99.90;;;;;;4989080;28;20042;-72
2021/08/31 09:33:30;;;;;;;6.22;3.75;;;19.00;99.90;;;;;;4985764;28;20128;-72
2021/08/31 09:36:02;;;;;;;7.38;4.10;;;18.90;99.90;;;;;;4985001;28;20504;-72
2021/08/31 09:38:48;;;;;;;6.68;4.10;;;18.90;99.90;;;;;;4991260;28;20030;-72
2021/08/31 09:41:37;;;;;;;9.73;3.97;;;19.00;99.90;;;;;;4992482;28;20102;-72
2021/08/31 09:44:23;;;;;;;6.43;3.60;;;19.00;99.90;;;;;;4991402;28;20038;-72
2021/08/31 09:46:55;;;;;;;6.15;4.15;;;19.10;99.90;;;;;;4990864;28;20393;-72
2021/08/31 09:49:32;;;;;;;9.63;4.03;;;19.20;99.90;;;;;;4984523;28;20039;-72
2021/08/31 09:52:08;;;;;;;6.97;4.30;;;19.30;99.90;;;;;;4974730;28;20039;-72
2021/08/31 09:54:41;;;;;;;6.70;3.78;;;19.40;99.90;;;;;;4983487;28;20031;-72
2021/08/31 09:57:31;;;;;;;6.90;3.00;;;19.40;99.90;;;;;;4991328;28;20069;-72
2021/08/31 09:59:58;;;;;;;9.23;3.88;;;19.30;99.90;;;;;;4991081;28;20049;-72
2021/08/31 10:02:25;;;;;;;5.57;3.88;;;19.30;99.90;;;;;;4991652;28;20030;-71
2021/08/31 10:04:54;;;;;;;8.20;4.30;;;19.20;99.90;;;;;;4989735;28;20026;-72
2021/08/31 10:07:22;;;;;;;5.50;3.50;;;19.30;99.90;;;;;;4989379;28;20034;-71
2021/08/31 10:09:49;;;;;;;8.85;4.13;;;19.30;99.90;;;;;;4984919;28;20050;-72
2021/08/31 10:12:18;;;;;;;9.32;4.40;;;19.40;99.90;;;;;;4988049;28;20026;-72
2021/08/31 10:14:44;;;;;;;6.78;4.45;;;19.50;99.90;;;;;;4988161;28;20100;-73
2021/08/31 10:17:14;;;;;;;4.80;3.33;;;19.60;99.90;;;;;;4991251;28;20027;-72
2021/08/31 10:19:43;;;;;;;9.15;4.65;;;19.70;99.90;;;;;;4989189;28;20033;-72
2021/08/31 10:22:12;;;;;;;5.60;3.90;;;19.70;99.90;;;;;;4990330;28;20432;-71
2021/08/31 10:24:41;;;;;;;4.45;3.50;;;19.70;99.90;;;;;;4980043;28;20023;-71
2021/08/31 10:27:31;;;;;;;6.63;3.75;;;19.50;99.90;;;;;;4991092;28;20041;-73
2021/08/31 10:30:27;;;;;;;7.15;4.30;;;19.50;99.90;;;;;;4988599;28;20057;-72
2021/08/31 10:32:58;;;;;;;6.28;3.78;;;19.40;99.90;;;;;;4984368;28;20034;-72
2021/08/31 10:35:39;;;;;;;9.25;4.15;;;19.40;99.90;;;;;;4971029;28;20030;-72
2021/08/31 10:38:07;;;;;;;5.95;3.92;;;19.50;99.90;;;;;;4980063;28;20370;-72
2021/08/31 10:40:48;;;;;;;8.38;4.20;;;19.50;99.90;;;;;;4988495;28;20040;-72
2021/08/31 10:43:23;;;;;;;;;;;19.60;99.90;;;;;;4990281;28;20073;-73
2021/08/31 10:45:56;;;;;;;4.88;3.38;;;19.60;99.90;;;;;;4989844;28;19913;-73
2021/08/31 10:48:22;;;;;;;5.70;4.03;;;19.60;99.90;;;;;;4990083;28;20033;-73
2021/08/31 10:51:03;;;;;;;6.07;3.90;;;19.70;99.90;;;;;;4978409;28;20026;-72
2021/08/31 10:53:43;;;;;;;7.50;4.25;;;19.80;99.90;;;;;;4987308;28;20524;-73
2021/08/31 10:56:23;;;;;;;4.50;3.70;;;19.90;99.90;;;;;;4972397;28;20038;-73
2021/08/31 10:59:05;;;;;;;5.47;3.78;;;20.00;99.90;;;;;;4989518;28;20500;-72
2021/08/31 11:01:41;;;;;;;5.97;3.72;;;20.00;99.90;;;;;;4986080;28;20030;-72
2021/08/31 11:04:26;;;;;;;7.50;4.07;;;20.10;99.90;;;;;;4985684;28;20385;-72
2021/08/31 11:07:04;;;;;;;5.68;3.85;;;20.10;99.90;;;;;;4987453;28;20117;-73
2021/08/31 11:09:31;;;;;;;4.88;3.60;;;20.10;99.90;;;;;;4985549;28;20065;-72
2021/08/31 11:12:08;;;;;;;8.00;4.20;;;20.10;99.90;;;;;;4987621;28;20027;-72
2021/08/31 11:14:53;;;;;;;7.25;3.85;;;20.50;99.90;;;;;;4983315;28;20018;-73
2021/08/31 11:17:34;;;;;;;6.22;4.15;;;20.90;99.90;;;;;;4985048;28;20057;-72
2021/08/31 11:20:20;;;;;;;5.45;3.45;;;21.30;99.20;;;;;;4999953;28;20576;-72
2021/08/31 11:22:49;;;;;;;5.30;3.72;;;21.70;97.70;;;;;;4988086;28;20493;-72
2021/08/31 11:25:15;;;;;;;5.90;3.50;;;21.70;95.90;;;;;;4987313;28;20125;-72
2021/08/31 11:28:01;;;;;;;3.75;3.03;;;21.70;96.10;;;;;;4979999;28;20027;-72
2021/08/31 11:30:27;;;;;;;4.28;3.35;;;21.60;95.70;;;;;;4989265;28;20057;-73
2021/08/31 11:33:24;;;;;;;7.07;3.72;;;21.60;94.70;;;;;;4989907;28;20030;-73
2021/08/31 11:35:55;;;;;;;4.28;3.08;;;21.50;93.70;;;;;;4985970;28;20062;-73
2021/08/31 11:38:31;;;;;;;;;;;21.50;95.40;;;;;;4984871;28;20034;-72
2021/08/31 11:41:12;;;;;;;3.78;3.03;;;21.40;94.80;;;;;;4986191;28;19972;-73
2021/08/31 11:43:38;;;;;;;7.10;3.20;;;21.10;93.90;;;;;;4988753;28;20085;-72
2021/08/31 11:46:03;;;;;;;7.97;3.83;;;21.00;94.90;;;;;;4988139;28;20512;-72
2021/08/31 11:48:29;;;;;;;4.32;3.00;;;21.00;94.50;;;;;;4978977;28;20385;-72
2021/08/31 11:50:58;;;;;;;3.85;3.10;;;21.20;94.60;;;;;;4989206;28;20049;-72
2021/08/31 11:53:24;;;;;;;4.45;3.58;;;21.70;94.70;;;;;;4989823;28;20022;-73
2021/08/31 11:55:59;;;;;;;4.03;3.20;;;22.10;93.80;;;;;;4984700;28;20676;-72
2021/08/31 11:58:26;;;;;;;7.68;3.33;;;22.00;91.70;;;;;;4985622;28;20603;-73
2021/08/31 12:00:52;;;;;;;5.75;3.60;;;21.80;93.10;;;;;;4984147;28;20022;-72
2021/08/31 12:03:28;;;;;;;5.43;3.53;;;21.70;93.80;;;;;;4982288;28;20114;-72
2021/08/31 12:06:10;;;;;;;5.35;3.60;;;21.70;93.70;;;;;;4986643;28;20034;-72
2021/08/31 12:08:40;;;;;;;4.60;3.15;;;;;;;;;;4988716;28;20244;-73
2021/08/31 12:11:06;;;;;;;9.15;3.22;;;22.00;93.40;;;;;;4986442;28;20038;-73
2021/08/31 12:13:32;;;;;;;4.03;2.90;;;23.40;90.20;;;;;;4978785;28;20029;-73
2021/08/31 12:15:59;;;;;;;4.93;3.25;;;;;;;;;;4980381;28;20515;-73
2021/08/31 12:18:27;;;;;;;4.72;2.95;;;;;;;;;;4983685;28;20397;-72
2021/08/31 12:20:56;;;;;;;3.67;2.70;;;;;;;;;;4988015;28;20034;-72
2021/08/31 12:23:30;;;;;;;4.00;3.00;;;;;;;;;;4987661;28;20044;-72
2021/08/31 12:25:56;;;;;;;9.30;3.22;;;;;;;;;;4987532;28;20072;-73
2021/08/31 12:28:22;;;;;;;4.07;3.10;;;;;;;;;;4986042;28;20109;-74
2021/08/31 12:33:33;;;;;;;4.80;2.95;;;;;;;;;;4984839;28;20049;-73
2021/08/31 12:36:08;;;;;;;5.95;2.97;;;;;;;;;;4981618;28;20038;-72
2021/08/31 12:38:35;;;;;;;7.30;3.33;;;;;;;;;;4976867;28;20038;-72
2021/08/31 12:41:08;;;;;;;5.78;2.92;;;;;;;;;;4989935;28;20084;-73
2021/08/31 12:43:53;;;;;;;4.40;2.90;;;;;;;;;;4992116;28;20026;-73
2021/08/31 12:46:23;;;;;;;4.50;2.78;;;;;;;;;;4987504;28;20065;-73
2021/08/31 12:48:50;;;;;;;3.87;2.87;;;;;;;;;;4988992;28;20031;-74
2021/08/31 12:51:48;;;;;;;5.72;2.85;;;;;;;;;;4991867;28;20273;-73
2021/08/31 12:54:34;;;;;;;4.78;3.00;;;;;;;;;;4979142;28;20049;-74
2021/08/31 12:57:07;;;;;;;5.38;2.85;;;;;;;;;;4991563;28;20048;-73
2021/08/31 12:59:37;;;;;;;3.67;3.13;;;;;;;;;;4987188;28;20456;-74
2021/08/31 13:02:05;;;;;;;5.90;3.63;;;;;;;;;;4980960;28;20066;-74